Flight Track Log - Related Links

Times and Time Zones

All times are in EDT time to prevent confusion due to time zone crossing. See the N860BA flight status page for this flight to view local times or setup timezone preferences in your user account.

Time Position Orientation Groundspeed Altitude Reporting Facility
EDT Latitude Longitude Course Direction KTS MPH feet Rate Location/Type
Sat 11:15:18 AM 37.7500 -122.2833 28° Northeast 169 194 2,500  Level Northern Cal TRACON
Sat 11:16:18 AM 37.7667 -122.3167 302° West 182 209 4,400 1,665 Climbing Northern Cal TRACON
Sat 11:18:11 AM 37.8500 -122.3469 344° North 218 251 7,300 1,414 Climbing Oakland Center
Sat 11:19:12 AM 37.9036 -122.2736 47° Northeast 277 319 8,500 1,180 Climbing Oakland Center
Sat 11:20:00 AM 38.3318 -121.6454 28° Northeast  Level FlightAware Approximate
Sat 11:20:13 AM 37.9681 -122.1931 45° Northeast 317 365 9,700  Level Oakland Center
Sat 11:21:14 AM 38.0389 -122.0992 46° Northeast 362 417 10,900 1,220 Climbing Oakland Center
Sat 11:22:16 AM 38.1286 -121.9794 46° Northeast 392 451 12,200 1,317 Climbing Oakland Center
Sat 11:23:17 AM 38.2067 -121.8742 47° Northeast 409 471 13,600 1,328 Climbing Oakland Center
Sat 11:24:18 AM 38.2847 -121.7681 47° Northeast 412 474 14,900 1,317 Climbing Oakland Center
Sat 11:25:20 AM 38.3636 -121.6622 46° Northeast 414 476 16,300 1,415 Climbing Oakland Center
Sat 11:26:21 AM 38.4483 -121.5458 47° Northeast 416 479 17,800 1,377 Climbing Oakland Center
Sat 11:27:22 AM 38.5131 -121.4356 53° Northeast 420 483 19,100 1,304 Climbing Oakland Center
Sat 11:29:25 AM 38.6542 -121.1922 53° Northeast 432 497 21,800 1,402 Climbing Oakland Center
Sat 11:30:26 AM 38.7364 -121.0492 54° Northeast 428 493 23,400 1,475 Climbing Oakland Center
Sat 11:31:27 AM 38.8075 -120.9261 53° Northeast 428 493 24,800 1,317 Climbing Oakland Center
Sat 11:32:29 AM 38.8781 -120.8031 54° Northeast 427 491 26,100 1,073 Climbing Oakland Center
Sat 11:33:30 AM 38.9494 -120.6817 53° Northeast 426 490 27,000 689 Climbing Oakland Center
Sat 11:34:31 AM 39.0236 -120.5519 54° Northeast 444 511 27,500 488 Climbing Oakland Center
Sat 11:35:33 AM 39.1000 -120.4197 53° Northeast 458 527 28,000 484 Climbing Oakland Center
Sat 11:36:35 AM 39.1781 -120.2831 54° Northeast 471 542 28,500 488 Climbing Oakland Center
Sat 11:37:36 AM 39.2564 -120.1456 54° Northeast 474 545 29,000 541 Climbing Oakland Center
Sat 11:38:37 AM 39.3519 -119.9811 53° Northeast 485 558 29,600 541 Climbing Oakland Center
Sat 11:39:38 AM 39.4308 -119.8406 54° Northeast 482 555 30,100 488 Climbing Oakland Center
Sat 11:40:40 AM 39.5103 -119.6978 54° Northeast 485 558 30,600 439 Climbing Oakland Center
Sat 11:41:41 AM 39.5900 -119.5547 54° Northeast 486 559 31,000 393 Climbing Oakland Center
Sat 11:42:42 AM 39.6697 -119.4106 54° Northeast 488 562 31,400 390 Climbing Oakland Center
Sat 11:43:44 AM 39.7503 -119.2675 54° Northeast 488 562 31,800 390 Climbing Oakland Center
Sat 11:44:45 AM 39.8294 -119.1211 55° Northeast 490 564 32,200 390 Climbing Oakland Center
Sat 11:45:47 AM 39.9100 -118.9756 54° Northeast 491 565 32,600 390 Climbing Oakland Center
Sat 11:46:48 AM 39.9892 -118.8286 55° Northeast 492 566 33,000 197 Climbing Oakland Center
Sat 11:47:49 AM 40.0686 -118.6833 54° Northeast 491 565 33,000  Level Oakland Center
Sat 11:48:51 AM 40.1394 -118.5269 59° Northeast 500 575 33,000  Level Oakland Center
Sat 11:49:52 AM 40.1867 -118.3561 70° East 497 572 33,000  Level Oakland Center
Sat 11:50:54 AM 40.2422 -118.1522 70° East 495 570 33,000  Level Oakland Center
Sat 11:51:55 AM 40.2822 -118.0064 70° East 493 567 33,000  Level Oakland Center
Sat 11:52:56 AM 40.3331 -117.8164 71° East 494 568 33,000  Level Oakland Center
Sat 11:53:58 AM 40.3775 -117.6556 70° East 491 565 33,000  Level Oakland Center
Sat 11:54:59 AM 40.4275 -117.4658 71° East 492 566 33,000  Level Oakland Center
Sat 11:56:01 AM 40.4706 -117.3036 71° East 490 564 33,000  Level Oakland Center
Sat 11:57:02 AM 40.5142 -117.1403 71° East 491 565 33,000  Level Oakland Center
Sat 11:58:04 AM 40.5667 -116.9453 70° East 498 573 33,000  Level Oakland Center
Sat 11:59:25 AM 40.6239 -116.7236 71° East 493 567 33,000  Level Salt Lake Center
Sat 12:00:28 PM 40.6686 -116.5589 70° East 494 568 33,000  Level Salt Lake Center
Sat 12:01:30 PM 40.7197 -116.3667 71° East 496 571 33,000  Level Salt Lake Center
Sat 12:02:32 PM 40.7642 -116.2044 70° East 494 568 33,000  Level Salt Lake Center
Sat 12:03:34 PM 40.8158 -116.0108 71° East 498 573 33,000  Level Salt Lake Center
Sat 12:04:36 PM 40.8583 -115.8461 71° East 496 571 33,000  Level Salt Lake Center
Sat 12:05:38 PM 40.9097 -115.6517 71° East 500 575 33,000  Level Salt Lake Center
Sat 12:06:40 PM 40.9533 -115.4850 71° East 501 577 33,000  Level Salt Lake Center
Sat 12:07:42 PM 41.0033 -115.2878 71° East 505 581 33,000  Level Salt Lake Center
Sat 12:08:44 PM 41.0464 -115.1206 71° East 503 579 33,000  Level Salt Lake Center
Sat 12:09:46 PM 41.0953 -114.9253 72° East 500 575 33,000  Level Salt Lake Center
Sat 12:10:48 PM 41.1369 -114.7608 71° East 500 575 33,000  Level Salt Lake Center
Sat 12:11:50 PM 41.1800 -114.5878 72° East 497 572 33,000  Level Salt Lake Center
Sat 12:12:52 PM 41.2231 -114.4142 72° East 496 571 33,000  Level Salt Lake Center
Sat 12:13:54 PM 41.2750 -114.2047 72° East 498 573 33,000  Level Salt Lake Center
Sat 12:14:56 PM 41.3172 -114.0300 72° East 497 572 33,000  Level Salt Lake Center
Sat 12:15:58 PM 41.3594 -113.8544 72° East 498 573 33,000  Level Salt Lake Center
Sat 12:17:00 PM 41.3875 -113.6731 78° East 500 575 33,000  Level Salt Lake Center
Sat 12:18:02 PM 41.4081 -113.4911 81° East 499 574 33,000  Level Salt Lake Center
Sat 12:19:04 PM 41.4306 -113.3122 80° East 494 568 33,000  Level Salt Lake Center
Sat 12:20:06 PM 41.4528 -113.1317 81° East 494 568 33,000  Level Salt Lake Center
Sat 12:21:08 PM 41.4803 -112.9142 80° East 495 570 33,000  Level Salt Lake Center
Sat 12:22:10 PM 41.5017 -112.7333 81° East 495 570 33,000  Level Salt Lake Center
Sat 12:23:12 PM 41.5236 -112.5508 81° East 497 572 33,000  Level Salt Lake Center
Sat 12:24:14 PM 41.5433 -112.3672 82° East 499 574 33,000  Level Salt Lake Center
Sat 12:25:17 PM 41.5628 -112.1833 82° East 499 574 33,000  Level Salt Lake Center
Sat 12:26:19 PM 41.5825 -111.9997 82° East 498 573 33,000  Level Salt Lake Center
Sat 12:27:21 PM 41.6011 -111.8153 82° East 497 572 33,000  Level Salt Lake Center
Sat 12:28:23 PM 41.6233 -111.5936 82° East 499 574 33,000  Level Salt Lake Center
Sat 12:29:25 PM 41.6419 -111.4083 82° East 501 577 33,000  Level Salt Lake Center
Sat 12:30:27 PM 41.6592 -111.2244 83° East 499 574 33,000  Level Salt Lake Center
Sat 12:31:29 PM 41.6769 -111.0397 83° East 500 575 33,000  Level Salt Lake Center
Sat 12:32:31 PM 41.6953 -110.8386 83° East 503 579 33,000  Level Salt Lake Center
Sat 12:33:33 PM 41.7100 -110.6625 84° East 499 574 33,000  Level Salt Lake Center
Sat 12:34:35 PM 41.7289 -110.4558 83° East 501 577 33,000  Level Salt Lake Center
Sat 12:35:37 PM 41.7447 -110.2794 83° East 499 574 33,000  Level Salt Lake Center
Sat 12:36:39 PM 41.7622 -110.0739 83° East 497 572 33,000  Level Salt Lake Center
Sat 12:37:41 PM 41.7775 -109.8972 83° East 498 573 33,000  Level Salt Lake Center
Sat 12:38:43 PM 41.7931 -109.7217 83° East 495 570 33,000  Level Salt Lake Center
Sat 12:39:45 PM 41.8094 -109.5161 84° East 496 571 33,000  Level Salt Lake Center
Sat 12:40:47 PM 41.8242 -109.3392 84° East 496 571 33,000  Level Salt Lake Center
Sat 12:41:49 PM 41.8408 -109.1308 84° East 498 573 33,000  Level Salt Lake Center
Sat 12:42:51 PM 41.8542 -108.9550 84° East 494 568 33,000  Level Salt Lake Center
Sat 12:43:53 PM 41.8692 -108.7497 84° East 492 566 33,000  Level Salt Lake Center
Sat 12:44:55 PM 41.8825 -108.5744 84° East 490 564 33,000  Level Salt Lake Center
Sat 12:45:57 PM 41.8950 -108.3981 85° East 494 568 33,000  Level Salt Lake Center
Sat 12:46:59 PM 41.9092 -108.1933 85° East 495 570 33,000  Level Salt Lake Center
Sat 12:48:01 PM 41.9200 -108.0161 85° East 496 571 33,000  Level Salt Lake Center
Sat 12:49:03 PM 41.9344 -107.8097 85° East 496 571 33,000  Level Salt Lake Center
Sat 12:49:47 PM 41.9389 -107.7206 86° East 493 567 33,000  Level Denver Center
Sat 12:50:50 PM 41.9539 -107.4864 85° East 492 566 33,000  Level Denver Center
Sat 12:51:52 PM 41.9644 -107.3111 85° East 491 565 33,000  Level Denver Center
Sat 12:52:54 PM 41.9775 -107.1061 85° East 493 567 33,000  Level Denver Center
Sat 12:53:56 PM 41.9878 -106.9325 85° East 489 563 33,000  Level Denver Center
Sat 12:54:58 PM 41.9994 -106.7278 86° East 493 567 33,000  Level Denver Center
Sat 12:56:00 PM 42.0094 -106.5528 86° East 490 564 33,000  Level Denver Center
Sat 12:57:02 PM 42.0200 -106.3558 86° East 491 565 33,000  Level Denver Center
Sat 12:58:05 PM 42.0275 -106.1797 87° East 492 566 33,000 240 Level Denver Center
Sat 12:59:07 PM 42.0394 -105.9744 85° East 495 570 33,500 484 Climbing Denver Center
Sat 01:00:09 PM 42.0469 -105.7992 87° East 491 565 34,000 532 Climbing Denver Center
Sat 01:01:11 PM 42.0567 -105.5942 86° East 492 566 34,600 484 Climbing Denver Center
Sat 01:02:13 PM 42.0647 -105.4219 86° East 486 559 35,000 194 Climbing Denver Center
Sat 01:03:15 PM 42.0719 -105.2169 87° East 490 564 35,000  Level Denver Center
Sat 01:04:17 PM 42.0856 -105.0425 84° East 490 564 35,000  Level Denver Center
Sat 01:05:19 PM 42.1033 -104.8414 83° East 489 563 35,000  Level Denver Center
Sat 01:06:21 PM 42.1167 -104.6736 84° East 475 547 35,000  Level Denver Center
Sat 01:07:23 PM 42.1336 -104.4742 83° East 483 556 35,000  Level Denver Center
Sat 01:08:25 PM 42.1475 -104.3017 84° East 487 560 35,000 97 Level Denver Center
Sat 01:09:27 PM 42.1642 -104.0978 84° East 491 565 35,200 307 Climbing Denver Center
Sat 01:10:42 PM 42.1831 -103.8658 84° East 491 565 35,700 438 Climbing Denver Center
Sat 01:11:44 PM 42.1961 -103.6933 84° East 488 562 36,200 532 Climbing Denver Center
Sat 01:12:46 PM 42.2111 -103.4947 84° East 481 554 36,800 387 Climbing Denver Center
Sat 01:13:48 PM 42.2244 -103.3231 84° East 480 552 37,000 97 Climbing Denver Center
Sat 01:14:50 PM 42.2386 -103.1200 85° East 488 562 37,000  Level Denver Center
Sat 01:15:52 PM 42.2508 -102.9447 85° East 490 564 37,000  Level Denver Center
Sat 01:16:54 PM 42.2672 -102.7400 84° East 494 568 37,000  Level Denver Center
Sat 01:17:56 PM 42.2775 -102.5633 85° East 495 570 37,000  Level Denver Center
Sat 01:18:58 PM 42.2928 -102.3583 84° East 493 567 37,000  Level Denver Center
Sat 01:20:00 PM 42.3031 -102.1811 85° East 496 571 37,000  Level Denver Center
Sat 01:21:14 PM 42.3142 -102.0047 85° East 493 567 37,000  Level Denver Center
Sat 01:22:17 PM 42.3294 -101.7633 85° East 495 570 37,000  Level Denver Center
Sat 01:23:19 PM 42.3408 -101.5569 86° East 492 566 37,000  Level Denver Center
Sat 01:24:21 PM 42.3514 -101.3778 85° East 497 572 37,000  Level Denver Center
Sat 01:25:23 PM 42.3614 -101.2000 86° East 497 572 37,000  Level Denver Center
Sat 01:26:25 PM 42.3719 -100.9939 86° East 493 567 37,000  Level Denver Center
Sat 01:27:27 PM 42.3811 -100.8175 86° East 491 565 37,000  Level Denver Center
Sat 01:28:27 PM 42.3906 -100.6142 86° East 490 564 37,000  Level Minneapolis Center
Sat 01:29:29 PM 42.4000 -100.4294 86° East 491 565 37,000  Level Minneapolis Center
Sat 01:30:31 PM 42.4106 -100.2419 86° East 494 568 37,000  Level Minneapolis Center
Sat 01:31:33 PM 42.4194 -100.0589 86° East 493 567 37,000  Level Minneapolis Center
Sat 01:32:35 PM 42.4267 -99.8775 87° East 490 564 37,000  Level Minneapolis Center
Sat 01:33:37 PM 42.4322 -99.7003 88° East 480 552 37,000  Level Minneapolis Center
Sat 01:34:39 PM 42.4417 -99.4831 87° East 480 552 37,000  Level Minneapolis Center
Sat 01:35:41 PM 42.4497 -99.3014 86° East 482 555 37,000  Level Minneapolis Center
Sat 01:36:43 PM 42.4561 -99.1186 87° East 484 557 37,000  Level Minneapolis Center
Sat 01:37:46 PM 42.4633 -98.9358 87° East 485 558 37,000  Level Minneapolis Center
Sat 01:38:48 PM 42.4694 -98.7533 87° East 484 557 37,000  Level Minneapolis Center
Sat 01:39:50 PM 42.4861 -98.5744 83° East 477 549 37,000  Level Minneapolis Center
Sat 01:40:52 PM 42.5111 -98.3992 79° East 473 544 37,000  Level Minneapolis Center
Sat 01:41:54 PM 42.5406 -98.1889 79° East 473 544 37,000  Level Minneapolis Center
Sat 01:42:56 PM 42.5644 -98.0125 80° East 475 547 37,000  Level Minneapolis Center
Sat 01:43:58 PM 42.5875 -97.8353 80° East 476 548 37,000  Level Minneapolis Center
Sat 01:45:00 PM 42.6111 -97.6656 79° East 473 544 37,000  Level Minneapolis Center
Sat 01:46:02 PM 42.6336 -97.4886 80° East 474 545 37,000  Level Minneapolis Center
Sat 01:47:04 PM 42.6558 -97.3128 80° East 473 544 37,000 242 Level Minneapolis Center
Sat 01:48:06 PM 42.6836 -97.1028 80° East 470 541 37,500 435 Climbing Minneapolis Center
Sat 01:49:08 PM 42.7036 -96.9394 80° East 470 541 37,900 435 Climbing Minneapolis Center
Sat 01:50:10 PM 42.7253 -96.7667 80° East 466 536 38,400 435 Climbing Minneapolis Center
Sat 01:51:12 PM 42.7461 -96.5928 81° East 468 539 38,800 290 Climbing Minneapolis Center
Sat 01:52:14 PM 42.7711 -96.3892 80° East 460 529 39,000 96 Climbing Minneapolis Center
Sat 01:53:17 PM 42.7919 -96.2169 81° East 463 533 39,000  Level Minneapolis Center
Sat 01:54:19 PM 42.8119 -96.0433 81° East 466 536 39,000  Level Minneapolis Center
Sat 01:55:21 PM 42.8319 -95.8719 81° East 462 532 39,000  Level Minneapolis Center
Sat 01:56:23 PM 42.8517 -95.6981 81° East 466 536 39,000  Level Minneapolis Center
Sat 01:57:25 PM 42.8750 -95.4914 81° East 465 535 39,000  Level Minneapolis Center
Sat 01:58:27 PM 42.8942 -95.3183 81° East 465 535 39,000  Level Minneapolis Center
Sat 01:59:29 PM 42.9139 -95.1444 81° East 466 536 39,000  Level Minneapolis Center
Sat 02:00:31 PM 42.9325 -94.9714 82° East 465 535 39,000  Level Minneapolis Center
Sat 02:01:33 PM 42.9508 -94.7969 82° East 466 536 39,000  Level Minneapolis Center
Sat 02:02:35 PM 42.9717 -94.5969 82° East 464 534 39,000  Level Minneapolis Center
Sat 02:03:37 PM 42.9875 -94.4411 82° East 467 537 39,000  Level Minneapolis Center
Sat 02:04:39 PM 43.0089 -94.2322 82° East 466 536 39,000  Level Minneapolis Center
Sat 02:05:42 PM 43.0269 -94.0583 82° East 468 539 39,000  Level Minneapolis Center
Sat 02:06:44 PM 43.0442 -93.8847 82° East 465 535 39,000  Level Minneapolis Center
Sat 02:07:46 PM 43.0603 -93.7103 83° East 467 537 39,000  Level Minneapolis Center
Sat 02:08:48 PM 43.0764 -93.5364 83° East 465 535 39,000  Level Minneapolis Center
Sat 02:09:50 PM 43.0953 -93.3289 83° East 463 533 39,000  Level Minneapolis Center
Sat 02:10:52 PM 43.1011 -93.1542 87° East 464 534 39,000  Level Minneapolis Center
Sat 02:11:54 PM 43.1044 -92.9794 88° East 464 534 39,000  Level Minneapolis Center
Sat 02:12:56 PM 43.1075 -92.8056 89° East 463 533 39,000  Level Minneapolis Center
Sat 02:13:58 PM 43.1111 -92.6339 88° East 457 526 39,000  Level Minneapolis Center
Sat 02:15:00 PM 43.1150 -92.4272 88° East 457 526 39,000  Level Minneapolis Center
Sat 02:16:06 PM 43.1158 -92.2558 90° East 456 525 39,000  Level Chicago Center
Sat 02:17:07 PM 43.1194 -92.0822 88° East 458 527 39,000  Level Chicago Center
Sat 02:18:07 PM 43.1244 -91.9069 88° East 460 529 39,000  Level Minneapolis Center
Sat 02:19:09 PM 43.1281 -91.7306 88° East 461 531 39,000  Level Minneapolis Center
Sat 02:20:11 PM 43.1289 -91.5558 90° East 460 529 39,000  Level Minneapolis Center
Sat 02:21:13 PM 43.1311 -91.3450 89° East 460 529 39,000  Level Minneapolis Center
Sat 02:22:16 PM 43.1325 -91.1725 89° East 458 527 39,000  Level Chicago Center
Sat 02:23:18 PM 43.1344 -90.9972 89° East 462 532 39,000  Level Chicago Center
Sat 02:24:19 PM 43.1350 -90.8244 90° East 458 527 39,000  Level Chicago Center
Sat 02:25:21 PM 43.1350 -90.6508 90° East 458 527 39,000  Level Chicago Center
Sat 02:26:23 PM 43.1361 -90.4772 89° East 458 527 39,000  Level Chicago Center
Sat 02:27:24 PM 43.1350 -90.2686 90° East 454 522 39,000  Level Chicago Center
Sat 02:28:26 PM 43.1347 -90.0953 90° East 455 524 39,000  Level Chicago Center
Sat 02:29:28 PM 43.1339 -89.9228 90° East 455 524 39,000  Level Chicago Center
Sat 02:30:29 PM 43.1342 -89.7514 90° East 453 521 39,000  Level Chicago Center
Sat 02:31:31 PM 43.1325 -89.5786 91° East 453 521 39,000  Level Chicago Center
Sat 02:32:33 PM 43.1317 -89.4053 90° East 456 525 39,000  Level Chicago Center
Sat 02:33:35 PM 43.1297 -89.2047 91° East 455 524 39,000  Level Chicago Center
Sat 02:34:36 PM 43.1275 -89.0306 91° East 459 528 39,000  Level Chicago Center
Sat 02:35:38 PM 43.1256 -88.8583 91° East 456 525 39,000  Level Chicago Center
Sat 02:36:40 PM 43.1228 -88.6853 91° East 458 527 39,000  Level Chicago Center
Sat 02:37:41 PM 43.1200 -88.5117 91° East 460 529 39,000  Level Chicago Center
Sat 02:38:43 PM 43.1175 -88.3094 91° East 461 531 39,000  Level Chicago Center
Sat 02:39:45 PM 43.1236 -88.1358 87° East 461 531 39,000  Level Chicago Center
Sat 02:40:46 PM 43.1317 -87.9633 86° East 458 527 39,000  Level Chicago Center
Sat 02:41:48 PM 43.1406 -87.7900 86° East 457 526 39,000  Level Chicago Center
Sat 02:42:50 PM 43.1481 -87.6156 87° East 460 529 39,000  Level Chicago Center
Sat 02:43:51 PM 43.1556 -87.4422 87° East 458 527 39,000  Level Chicago Center
Sat 02:44:53 PM 43.1642 -87.2456 86° East 458 527 39,000  Level Chicago Center
Sat 02:45:55 PM 43.1711 -87.0706 87° East 460 529 39,000  Level Chicago Center
Sat 02:46:57 PM 43.1769 -86.8967 87° East 460 529 39,000  Level Chicago Center
Sat 02:47:59 PM 43.1856 -86.7208 86° East 462 532 39,000  Level Chicago Center
Sat 02:49:01 PM 43.1914 -86.5444 87° East 463 533 39,000  Level Chicago Center
Sat 02:50:02 PM 43.1975 -86.3683 87° East 461 531 39,000  Level Chicago Center
Sat 02:51:04 PM 43.2033 -86.1908 87° East 463 533 39,000  Level Chicago Center
Sat 02:52:06 PM 43.2086 -86.0089 88° East 467 537 39,000  Level Chicago Center
Sat 02:53:08 PM 43.2142 -85.7911 88° East 467 537 39,000  Level Chicago Center
Sat 02:54:10 PM 43.2194 -85.6125 88° East 467 537 39,000  Level Chicago Center
Sat 02:55:12 PM 43.2228 -85.4358 88° East 464 534 39,000  Level Chicago Center
Sat 02:56:13 PM 43.2272 -85.2581 88° East 465 535 39,000  Level Chicago Center
Sat 02:57:15 PM 43.2317 -85.0817 88° East 463 533 39,000  Level Chicago Center
Sat 02:58:17 PM 43.2347 -84.9022 89° East 469 540 39,000  Level Chicago Center
Sat 02:59:19 PM 43.2386 -84.7242 88° East 469 540 39,000  Level Chicago Center
Sat 03:00:21 PM 43.2408 -84.5456 89° East 468 539 39,000  Level Chicago Center
Sat 03:01:23 PM 43.2447 -84.3319 88° East 468 539 39,000  Level Chicago Center
Sat 03:02:25 PM 43.2475 -84.1536 89° East 468 539 39,000  Level Chicago Center
Sat 03:03:27 PM 43.2506 -83.9772 89° East 466 536 39,000  Level Chicago Center
Sat 03:04:28 PM 43.2522 -83.7992 89° East 466 536 39,000  Level Chicago Center
Sat 03:05:30 PM 43.2542 -83.6222 89° East 466 536 39,000  Level Chicago Center
Sat 03:06:32 PM 43.2550 -83.4139 90° East 460 529 39,000  Level Cleveland Center
Sat 03:07:32 PM 43.2550 -83.2342 90° East 460 529 39,000  Level Cleveland Center
Sat 03:08:32 PM 43.2547 -83.0575 90° East 460 529 39,000  Level Cleveland Center
Sat 03:09:32 PM 43.2542 -82.8806 90° East 460 529 39,000  Level Cleveland Center
Sat 03:10:32 PM 43.2553 -82.7211 89° East 460 529 39,000  Level Cleveland Center
Sat 03:11:32 PM 43.2522 -82.5414 91° East 460 529 39,000  Level Cleveland Center
Sat 03:12:31 PM 43.2167 -82.3500 104° East 460 529 39,000  Level Toronto Center
Sat 03:13:31 PM 43.2167 -82.1667 90° East 460 529 39,000  Level Toronto Center
Sat 03:14:31 PM 43.2167 -81.9833 90° East 460 529 39,000  Level Toronto Center
Sat 03:15:31 PM 43.2333 -81.8333 81° East 460 529 39,000  Level Toronto Center
Sat 03:16:31 PM 43.2333 -81.6500 90° East 460 529 39,000  Level Toronto Center
Sat 03:17:31 PM 43.2333 -81.4667 90° East 470 541 39,000  Level Toronto Center
Sat 03:18:31 PM 43.2333 -81.3000 90° East 470 541 39,000  Level Toronto Center
Sat 03:19:31 PM 43.2167 -81.1167 97° East 470 541 39,000  Level Toronto Center
Sat 03:20:31 PM 43.2167 -80.9333 90° East 470 541 39,000  Level Toronto Center
Sat 03:21:31 PM 43.2333 -80.7500 83° East 470 541 39,000 50 Level Toronto Center
Sat 03:22:31 PM 43.2333 -80.5667 90° East 470 541 39,100 400 Climbing Toronto Center
Sat 03:23:31 PM 43.2333 -80.3833 90° East 470 541 39,800 650 Climbing Toronto Center
Sat 03:24:31 PM 43.2333 -80.2000 90° East 470 541 40,400 600 Climbing Toronto Center
Sat 03:25:31 PM 43.2333 -80.0500 90° East 470 541 41,000 300 Climbing Toronto Center
Sat 03:26:31 PM 43.2333 -79.8667 90° East 470 541 41,000  Level Toronto Center
Sat 03:27:31 PM 43.2333 -79.6833 90° East 480 552 41,000  Level Toronto Center
Sat 03:28:31 PM 43.2333 -79.5000 90° East 480 552 41,000  Level Toronto Center
Sat 03:29:31 PM 43.2333 -79.3167 90° East 490 564 41,000  Level Toronto Center
Sat 03:30:31 PM 43.2333 -79.1333 90° East 490 564 41,000  Level Toronto Center
Sat 03:31:31 PM 43.2167 -78.9167 96° East 490 564 41,000  Level Toronto Center
Sat 03:32:31 PM 43.2167 -78.7667 90° East 490 564 41,000  Level Toronto Center
Sat 03:33:31 PM 43.2167 -78.5500 90° East 490 564 41,000  Level Toronto Center
Sat 03:34:31 PM 43.2000 -78.3833 98° East 490 564 41,000  Level Toronto Center
Sat 03:35:31 PM 43.2000 -78.2000 90° East 490 564 41,000  Level Toronto Center
Sat 03:36:31 PM 43.2000 -78.0167 90° East 490 564 41,000  Level Toronto Center
Sat 03:37:31 PM 43.2000 -77.8333 90° East 490 564 41,000  Level Toronto Center
Sat 03:38:31 PM 43.2000 -77.6167 90° East 490 564 41,000  Level Toronto Center
Sat 03:39:31 PM 43.2000 -77.4667 90° East 490 564 41,000  Level Toronto Center
Sat 03:40:31 PM 43.1667 -77.2500 102° East 490 564 41,000  Level Toronto Center
Sat 03:41:31 PM 43.1667 -77.0667 90° East 490 564 41,000  Level Toronto Center
Sat 03:42:31 PM 43.1667 -76.8833 90° East 490 564 41,000  Level Toronto Center
Sat 03:43:31 PM 43.2000 -76.7000 76° East 500 575 41,000  Level Toronto Center
Sat 03:44:31 PM 43.2000 -76.5167 90° East 500 575 41,000 -48 Level Toronto Center
Sat 03:45:36 PM 43.2261 -76.3328 79° East 495 570 40,900 -48 Descending Boston Center
Sat 03:46:36 PM 43.2364 -76.1425 86° East 495 570 40,900  Level Boston Center
Sat 03:47:36 PM 43.2508 -75.9525 84° East 495 570 40,900  Level Boston Center
Sat 03:48:36 PM 43.2628 -75.7619 85° East 495 570 40,900  Level Boston Center
Sat 03:49:36 PM 43.2744 -75.5714 85° East 495 570 40,900  Level Boston Center
Sat 03:50:36 PM 43.2858 -75.3781 85° East 500 575 40,900 50 Level Boston Center
Sat 03:51:36 PM 43.2969 -75.1875 85° East 500 575 41,000  Climbing Boston Center
Sat 03:52:36 PM 43.3072 -75.0081 85° East 510 587 40,900 -50 Descending Boston Center
Sat 03:53:36 PM 43.3175 -74.8200 86° East 505 581 40,900  Level Boston Center
Sat 03:54:36 PM 43.3275 -74.6322 86° East 499 574 40,900  Level Boston Center
Sat 03:55:36 PM 43.3375 -74.4383 86° East 499 574 40,900  Level Boston Center
Sat 03:56:36 PM 43.3469 -74.2444 86° East 499 574 40,900  Level Boston Center
Sat 03:57:36 PM 43.3581 -74.0506 85° East 499 574 40,900 -850 Level Boston Center
Sat 03:58:36 PM 43.3669 -73.8625 86° East 499 574 39,200 -1,900 Descending Boston Center
Sat 03:59:36 PM 43.3756 -73.6425 87° East 510 587 37,100 -2,000 Descending Boston Center
Sat 04:00:36 PM 43.3861 -73.4372 86° East 524 603 35,200 -1,850 Descending Boston Center
Sat 04:01:36 PM 43.3978 -73.2544 85° East 529 609 33,400 -2,250 Descending Boston Center
Sat 04:02:36 PM 43.4033 -73.0289 88° East 529 609 30,700 -2,450 Descending Boston Center
Sat 04:03:36 PM 43.4147 -72.8517 85° East 536 617 28,500 -2,350 Descending Boston Center
Sat 04:04:36 PM 43.4214 -72.6572 87° East 525 604 26,000 -2,450 Descending Boston Center
Sat 04:05:36 PM 43.4258 -72.4658 88° East 508 585 23,600 -2,450 Descending Boston Center
Sat 04:06:36 PM 43.4339 -72.2572 87° East 501 577 21,100 -2,350 Descending Boston Center
Sat 04:07:36 PM 43.4419 -72.0683 87° East 496 571 18,900 -2,050 Descending Boston Center
Sat 04:08:36 PM 43.4431 -71.8881 89° East 486 559 17,000 -1,700 Descending Boston Center
Sat 04:09:36 PM 43.4486 -71.7394 87° East 446 513 15,500 -1,500 Descending Boston Center
Sat 04:10:36 PM 43.4475 -71.5592 90° East 435 501 14,000 -750 Descending Boston Center
Sat 04:11:36 PM 43.4400 -71.4108 94° East 424 488 14,000 -350 Level Boston Center
Sat 04:12:36 PM 43.4403 -71.2506 90° East 418 481 13,300 -1,200 Descending Boston Center
Sat 04:13:36 PM 43.4781 -71.0781 73° East 428 493 11,600 -1,150 Descending Boston Center
Sat 04:14:36 PM 43.5181 -70.9428 68° East 428 493 11,000 -900 Descending Boston Center
Sat 04:15:36 PM 43.5575 -70.7869 71° East 401 461 9,800 -1,550 Descending Boston Center
Sat 04:16:36 PM 43.5619 -70.6636 87° East 333 383 7,900 -1,900 Descending Boston Center
Sat 04:17:36 PM 43.5622 -70.5489 90° East 306 352 6,000 -1,450 Descending Boston Center
Sat 04:18:36 PM 43.5625 -70.4400 90° East 287 330 5,000 -500 Descending Boston Center
Sat 04:19:36 PM 43.5647 -70.3397 88° East 271 312 5,000 -500 Level Boston Center
Sat 04:20:36 PM 43.5650 -70.2394 90° East 258 297 4,000 -500 Descending Boston Center
Sat 04:21:36 PM 43.5675 -70.1533 88° East 240 276 4,000 -100 Level Boston Center
Sat 04:22:36 PM 43.6128 -70.1231 26° Northeast 185 213 3,800 -500 Descending Boston Center
Sat 04:23:36 PM 43.6406 -70.1592 317° Northwest 123 142 3,000 -950 Descending Boston Center
Sat 04:24:36 PM 43.6417 -70.2136 272° West 115 132 1,900 -1,050 Descending Boston Center
Sat 04:25:36 PM 43.6425 -70.2625 271° West 129 148 900 -900 Descending Boston Center
Sat 04:26:36 PM 43.6475 -70.3081 279° West 129 148 100 -400 Descending Boston Center
Sat 04:27:36 PM 43.6464 -70.3542 268° West 129 148 100  Level Boston Center

Login

Don't have an account? Register now (free) for customized features, flight alerts, and more!